• Join FlightAware (Why Join?)
  • Login
  • US Flag 
03:40AM EDT


 

Airport Tracker/Info


-or-


 

Live Flight TrackerFlight Track Log ✈ N131PT ✈ 29-Aug-2013 ✈ KCHS - KBCT

Flight Track Log - Related Links

Times and Time Zones

All times are in EDT time to prevent confusion due to time zone crossing. See the N131PT flight status page for this flight to view local times or setup timezone preferences in your user account.

Time Position Orientation Groundspeed Altitude Reporting Facility
EDT Latitude Longitude Course Direction KTS MPH feet Rate Location/Type
02:29PM 32.8181 -80.0822 207° Southwest 148 170 2,100  Level Jacksonville Center
02:30PM 32.7831 -80.1031 207° Southwest 157 181 3,400 1,200 Climbing Jacksonville Center
02:31PM 32.7417 -80.1289 208° Southwest 163 188 4,500 1,200 Climbing Jacksonville Center
02:32PM 32.7047 -80.1497 205° Southwest 163 188 5,800 1,200 Climbing Jacksonville Center
02:33PM 32.6678 -80.1831 217° Southwest 163 188 6,900 1,140 Climbing Jacksonville Center
02:34PM 32.6308 -80.2136 215° Southwest 168 193 8,100 1,140 Climbing Jacksonville Center
02:35PM 32.5919 -80.2519 220° Southwest 173 199 9,200 1,140 Climbing Jacksonville Center
02:36PM 32.5550 -80.2850 217° Southwest 178 205 10,400 1,140 Climbing Jacksonville Center
02:37PM 32.5161 -80.3206 218° Southwest 178 205 11,500 1,080 Climbing Jacksonville Center
02:38PM 32.4772 -80.3586 220° Southwest 178 205 12,600 1,080 Climbing Jacksonville Center
02:39PM 32.4425 -80.3989 224° Southwest 178 205 13,700 1,020 Climbing Jacksonville Center
02:40PM 32.4036 -80.4369 220° Southwest 178 205 14,700 960 Climbing Jacksonville Center
02:41PM 32.3628 -80.4750 218° Southwest 183 211 15,700 1,020 Climbing Jacksonville Center
02:42PM 32.3239 -80.5153 221° Southwest 188 216 16,800 900 Climbing Jacksonville Center
02:43PM 32.2828 -80.5581 221° Southwest 188 216 17,600 840 Climbing Jacksonville Center
02:44PM 32.2417 -80.5986 220° Southwest 188 216 18,500 900 Climbing Jacksonville Center
02:45PM 32.1989 -80.6436 222° Southwest 199 229 19,400 1,020 Climbing Jacksonville Center
02:46PM 32.1536 -80.6867 219° Southwest 205 236 20,600 1,140 Climbing Jacksonville Center
02:47PM 32.1061 -80.7194 210° Southwest 200 230 21,700 960 Climbing Jacksonville Center
02:48PM 32.0544 -80.7453 203° Southwest 205 236 22,600 1,020 Climbing Jacksonville Center
02:49PM 31.9986 -80.7736 203° Southwest 210 242 23,800 1,140 Climbing Jacksonville Center
02:50PM 31.9447 -80.7969 200° South 210 242 24,900 960 Climbing Jacksonville Center
02:51PM 31.8908 -80.8200 200° South 210 242 25,800 540 Climbing Jacksonville Center
02:52PM 31.8411 -80.8481 206° Southwest 216 249 26,000 60 Climbing Jacksonville Center
02:53PM 31.7767 -80.8764 200° South 234 269 26,000  Level Jacksonville Center
02:54PM 31.7064 -80.9097 202° Southwest 247 284 26,000  Level Jacksonville Center
02:55PM 31.6400 -80.9356 198° South 254 292 26,000  Level Jacksonville Center
02:56PM 31.5736 -80.9686 203° Southwest 254 292 26,000  Level Jacksonville Center
02:57PM 31.5156 -80.9967 202° Southwest 254 292 26,000  Level Jacksonville Center
02:58PM 31.4492 -81.0297 203° Southwest 249 287 26,000  Level Jacksonville Center
02:59PM 31.3767 -81.0628 201° Southwest 254 292 26,000  Level Jacksonville Center
03:00PM 31.3083 -81.0956 202° Southwest 254 292 26,000  Level Jacksonville Center
03:01PM 31.2439 -81.1308 205° Southwest 254 292 26,000  Level Jacksonville Center
03:02PM 31.1753 -81.1442 189° South 254 292 26,000  Level Jacksonville Center
03:03PM 31.1022 -81.1456 181° South 254 292 26,000  Level Jacksonville Center
03:04PM 31.0333 -81.1469 181° South 254 292 26,000  Level Jacksonville Center
03:05PM 30.9622 -81.1361 173° South 254 292 26,000  Level Jacksonville Center
03:06PM 30.9014 -81.1253 171° South 254 292 26,000  Level Jacksonville Center
03:07PM 30.8303 -81.1119 171° South 254 292 26,000  Level Jacksonville Center
03:08PM 30.7611 -81.0939 167° South 259 298 26,000  Level Jacksonville Center
03:09PM 30.6878 -81.0783 170° South 259 298 26,000  Level Jacksonville Center
03:10PM 30.6147 -81.0653 171° South 259 298 26,000  Level Jacksonville Center
03:11PM 30.5456 -81.0522 171° South 259 298 26,000  Level Jacksonville Center
03:12PM 30.4764 -81.0367 169° South 259 298 26,000  Level Jacksonville Center
03:13PM 30.4053 -81.0236 171° South 259 298 26,000  Level Jacksonville Center
03:14PM 30.3319 -81.0081 170° South 259 298 26,000  Level Jacksonville Center
03:15PM 30.2608 -80.9928 169° South 259 298 26,000  Level Jacksonville Center
03:16PM 30.1894 -80.9772 169° South 259 298 26,000  Level Jacksonville Center
03:17PM 30.1183 -80.9642 171° South 259 298 26,000  Level Jacksonville Center
03:18PM 30.0492 -80.9514 171° South 259 298 26,000  Level Jacksonville Center
03:19PM 29.9758 -80.9361 170° South 259 298 26,000  Level Jacksonville Center
03:20PM 29.9047 -80.9231 171° South 259 298 26,000  Level Jacksonville Center
03:21PM 29.8356 -80.9078 169° South 259 298 26,000  Level Jacksonville Center
03:22PM 29.7644 -80.8925 169° South 259 298 26,000  Level Jacksonville Center
03:23PM 29.6933 -80.8794 171° South 259 298 26,000  Level Jacksonville Center
03:24PM 29.6242 -80.8667 171° South 259 298 26,000  Level Jacksonville Center
03:26PM 29.4556 -80.8283 169° South 259 298 26,000  Level Miami Center
03:27PM 29.3831 -80.8186 173° South 259 298 26,000  Level Miami Center
03:28PM 29.3106 -80.8017 168° South 259 298 26,000  Level Miami Center
03:29PM 29.2400 -80.7875 170° South 259 298 26,000  Level Miami Center
03:30PM 29.1672 -80.7728 170° South 259 298 26,000  Level Miami Center
03:31PM 29.0967 -80.7608 172° South 259 298 26,000  Level Miami Center
03:32PM 29.0283 -80.7442 168° South 259 298 26,000  Level Miami Center
03:33PM 28.9556 -80.7322 172° South 259 298 26,000  Level Miami Center
03:34PM 28.8789 -80.7153 169° South 259 298 26,000  Level Miami Center
03:35PM 28.8083 -80.7011 170° South 259 298 26,000  Level Miami Center
03:36PM 28.7378 -80.6867 170° South 259 298 26,000 -360 Level Miami Center
03:37PM 28.6761 -80.6586 158° South 259 298 25,300 -600 Descending Miami Center
03:38PM 28.6106 -80.6139 149° Southeast 269 310 24,900 -600 Descending Miami Center
03:39PM 28.5450 -80.5642 146° Southeast 269 310 24,100 -900 Descending Miami Center
03:40PM 28.4833 -80.5222 149° Southeast 269 310 23,200 -960 Descending Miami Center
03:41PM 28.4239 -80.4800 148° Southeast 263 303 22,200 -1,140 Descending Miami Center
03:42PM 28.3708 -80.4428 148° Southeast 256 295 21,000 -1,140 Descending Miami Center
03:43PM 28.3108 -80.4128 156° South 241 277 20,000 -1,200 Descending Miami Center
03:44PM 28.2406 -80.3917 165° South 230 265 18,600 -1,260 Descending Miami Center
03:45PM 28.1742 -80.3756 168° South 230 265 17,500 -1,140 Descending Miami Center
03:46PM 28.1119 -80.3569 165° South 236 272 16,400 -1,020 Descending Miami Center
03:47PM 28.0519 -80.3386 165° South 236 272 15,500 -960 Descending Miami Center
03:48PM 27.9917 -80.3228 167° South 236 272 14,500 -900 Descending Miami Center
03:49PM 27.9336 -80.3069 166° South 230 265 13,700 -900 Descending Miami Center
03:50PM 27.8778 -80.2911 166° South 219 252 12,700 -1,080 Descending Miami Center
03:51PM 27.8239 -80.2753 165° South 211 243 11,600 -1,020 Descending Miami Center
03:52PM 27.7719 -80.2622 167° South 211 243 10,700 -960 Descending Miami Center
03:54PM 27.6994 -80.2411 166° South 211 243 9,600 -900 Descending Miami Center
03:55PM 27.6453 -80.2278 168° South 206 237 8,800 -900 Descending Miami Center
03:56PM 27.5956 -80.2122 165° South 206 237 7,900 -840 Descending Miami Center
03:57PM 27.5394 -80.1989 168° South 201 231 7,200 -780 Descending Miami Center
03:58PM 27.4814 -80.1833 167° South 201 231 6,400 -600 Descending Miami Center
03:59PM 27.4275 -80.1678 166° South 201 231 6,000 -300 Descending Miami Center
04:00PM 27.3756 -80.1522 165° South 201 231 5,900 -60 Descending Miami Center
04:01PM 27.3278 -80.1414 169° South 201 231 5,900  Level Miami Center
04:02PM 27.2739 -80.1353 174° South 201 231 5,900  Level Miami Center
04:03PM 27.2133 -80.1311 176° South 196 226 5,900  Level Miami Center
04:04PM 27.1611 -80.1250 174° South 196 226 5,900  Level Miami Center
04:05PM 27.1092 -80.1211 176° South 196 226 5,900 -480 Level Miami Center
04:06PM 27.0592 -80.1175 176° South 196 226 5,000 -360 Descending Miami Center
04:08PM 26.9400 -80.1167 180° South  Level FlightAware Approximate
04:15PM 26.4979 -80.1000 180° South  Level FlightAware Approximate
04:16PM 26.4346 -80.1000 180° South  Level FlightAware Approximate
04:16PM 26.4925 -80.1458 180° South 180 207 2,000  Level Miami Center
04:17PM 26.3713 -80.1000 180° South  Level FlightAware Approximate
04:17PM 26.4417 -80.1747 207° Southwest 168 193 2,100  Level Miami Center
04:18PM 26.3667 -80.1000 180° South  Level FlightAware Approximate
04:18PM 26.3958 -80.1733 178° South 158 182 1,600  Level Miami Center
04:19PM 26.3785 -80.1077 180° South  Level Estimated
04:19PM 26.3628 -80.1561 155° Southeast 120 138 1,200  Level Miami Center
04:20PM 26.3785 -80.1077 180° South  Level Estimated
04:20PM 26.3614 -80.1236 93° East 116 133 400  Level Miami Center
04:21PM 26.3785 -80.1077 180° South  Level Estimated
04:22PM 26.3785 -80.1077 180° South  Level Estimated
04:22PM 26.3667 -80.1000 42° Northeast  Level FlightAware Approximate
04:29PM 26.3785 -80.1077 42° Northeast  Level Estimated
04:30PM 26.3785 -80.1077 42° Northeast  Level Estimated